Portada
METAR-TAF:

METAR-TAF

Aeroports :

Laconia Municipal Airport

Laconia, Nova Hampshire, Estats Units d'Amèrica

latitud: 43-34N, longitud: 071-25W, altitud: 166 m

Observació

L'informe es va fer fa 23 minuts, a les 00:56 UTC
Vent 3 kt del Oest/Sud-Oest
Temperatura 25°C
Humitat 79%
Pressió 1014 hPa
Visibilitat: 16.1 km
Escasses núvols a una alçada de 12000 ft

METAR: KLCI 110056Z AUTO 25003KT 10SM FEW120 25/21 A2995 RMK AO2 SLP137 T02500206

Hora: 21:19 (01:19 UTC)


TAF: manca

Observacions i pronòstics meteorològics de més de 4000 aeroports (METAR i TAF).

Les estacions disponibles són els punts grocs i vermells al mapa.

Posi el ratolí al punt desitjat per veure el nom de l'estació.

Feu clic per veure les observacions i els pronòstics meteorològics.

Per canviar el mapa: feu clic els botons verds amb una creu de color negre per apropar; al botó verd amb un guió per allunyar la imatge; o en les fletxes verdes per a mapes adjacents.


METAR-TAF: